createdAt,value
2022-10-14T00:00:32.811Z,13.10
2022-10-14T00:01:34.856Z,13.10
2022-10-14T00:02:37.830Z,13.10
2022-10-14T00:03:40.416Z,13.10
2022-10-14T00:04:43.374Z,13.10
2022-10-14T00:05:45.351Z,13.10
2022-10-14T00:06:48.307Z,13.10
2022-10-14T00:07:50.260Z,13.10
2022-10-14T00:08:53.674Z,13.10
2022-10-14T00:09:55.581Z,13.10
2022-10-14T00:11:05.680Z,13.10
2022-10-14T00:12:07.728Z,13.10
2022-10-14T00:13:10.613Z,13.00
2022-10-14T00:14:15.218Z,13.00
2022-10-14T00:15:18.614Z,13.00
2022-10-14T00:16:22.930Z,13.10
2022-10-14T00:17:26.476Z,13.10
2022-10-14T00:18:28.514Z,13.10
2022-10-14T00:19:31.425Z,13.10
2022-10-14T00:20:33.483Z,13.10
2022-10-14T00:21:38.830Z,13.00
2022-10-14T00:22:40.842Z,13.00
2022-10-14T00:23:44.225Z,13.10
2022-10-14T00:24:46.183Z,13.10
2022-10-14T00:25:49.114Z,13.10
2022-10-14T00:26:52.387Z,13.10
2022-10-14T00:27:55.939Z,13.10
2022-10-14T00:28:59.002Z,13.20
2022-10-14T00:30:02.001Z,13.20
2022-10-14T00:31:03.975Z,13.20
2022-10-14T00:32:06.945Z,13.20
2022-10-14T00:33:08.885Z,13.20
2022-10-14T00:34:13.119Z,13.20
2022-10-14T00:35:15.259Z,13.20
2022-10-14T00:36:20.668Z,13.10
2022-10-14T00:37:23.031Z,13.10
2022-10-14T00:38:26.498Z,13.10
2022-10-14T00:39:28.448Z,13.10
2022-10-14T00:40:31.337Z,13.10
2022-10-14T00:41:34.967Z,13.10
2022-10-14T00:42:39.282Z,13.10
2022-10-14T00:43:58.013Z,13.10
2022-10-14T00:45:08.820Z,13.10
2022-10-14T00:46:12.038Z,13.10
2022-10-14T00:47:15.285Z,13.10
2022-10-14T00:48:18.289Z,13.10
2022-10-14T00:49:26.177Z,13.10
2022-10-14T00:50:29.098Z,13.00
2022-10-14T00:51:31.349Z,13.00
2022-10-14T00:52:34.374Z,13.00
2022-10-14T00:53:37.825Z,13.00
2022-10-14T00:54:43.290Z,13.10
2022-10-14T00:55:47.026Z,13.10
2022-10-14T00:56:50.230Z,13.10
2022-10-14T00:57:54.523Z,13.10
2022-10-14T00:58:57.624Z,13.10
2022-10-14T01:00:05.869Z,13.00
2022-10-14T01:01:07.986Z,13.00
2022-10-14T01:02:11.046Z,13.00
2022-10-14T01:03:20.214Z,13.10
2022-10-14T01:04:23.146Z,13.10
2022-10-14T01:05:31.542Z,13.10
2022-10-14T01:06:43.497Z,13.10
2022-10-14T01:07:55.551Z,13.10
2022-10-14T01:09:04.665Z,13.10
2022-10-14T01:10:12.863Z,13.10
2022-10-14T01:11:22.101Z,13.10
2022-10-14T01:12:30.252Z,13.10
2022-10-14T01:13:36.422Z,13.10
2022-10-14T01:14:49.196Z,13.10
2022-10-14T01:16:03.826Z,13.10
2022-10-14T01:17:12.568Z,13.10
2022-10-14T01:18:31.734Z,13.20
2022-10-14T01:20:13.223Z,13.20
2022-10-14T01:21:23.857Z,13.20
2022-10-14T01:22:31.362Z,13.20
2022-10-14T01:24:15.790Z,13.10
2022-10-14T01:25:25.989Z,13.10
2022-10-14T01:26:44.298Z,13.10
2022-10-14T01:28:12.393Z,13.10
2022-10-14T01:29:29.973Z,13.10
2022-10-14T01:30:39.313Z,13.10
2022-10-14T01:31:45.711Z,13.10
2022-10-14T01:33:04.658Z,13.10
2022-10-14T01:34:10.770Z,13.10
2022-10-14T01:35:24.154Z,13.10
2022-10-14T01:36:31.933Z,13.20
2022-10-14T01:37:39.253Z,13.20
2022-10-14T01:38:46.204Z,13.20
2022-10-14T01:39:52.152Z,13.20
2022-10-14T01:40:58.473Z,13.20
2022-10-14T01:42:04.930Z,13.20
2022-10-14T01:43:08.014Z,13.20
2022-10-14T01:44:13.281Z,13.20
2022-10-14T01:45:20.044Z,13.20
2022-10-14T01:46:27.667Z,13.20
2022-10-14T01:47:33.031Z,13.20
2022-10-14T01:48:39.858Z,13.20
2022-10-14T01:49:46.682Z,13.20
2022-10-14T01:50:51.340Z,13.20
2022-10-14T01:51:57.801Z,13.20
2022-10-14T01:53:04.332Z,13.20
2022-10-14T01:54:11.139Z,13.20
2022-10-14T01:55:19.413Z,13.20
2022-10-14T01:56:21.910Z,13.20
2022-10-14T01:57:27.830Z,13.20
2022-10-14T01:58:31.749Z,13.20
2022-10-14T01:59:36.737Z,13.20
2022-10-14T02:00:38.694Z,13.30
2022-10-14T02:01:43.069Z,13.20
2022-10-14T02:02:45.125Z,13.20
2022-10-14T02:03:48.670Z,13.20
2022-10-14T02:05:00.893Z,13.20
2022-10-14T02:06:06.932Z,13.20
2022-10-14T02:07:14.990Z,13.20
2022-10-14T02:08:29.926Z,13.20
2022-10-14T02:09:42.986Z,13.20
2022-10-14T02:11:02.135Z,13.10
2022-10-14T02:12:14.530Z,13.10
2022-10-14T02:13:31.139Z,13.10
2022-10-14T02:14:39.430Z,13.10
2022-10-14T02:15:56.379Z,13.10
2022-10-14T02:17:05.061Z,13.20
2022-10-14T02:18:13.781Z,13.20
2022-10-14T02:19:26.118Z,13.20
2022-10-14T02:20:33.497Z,13.20
2022-10-14T02:21:40.857Z,13.20
2022-10-14T02:22:45.295Z,13.30
2022-10-14T02:23:55.134Z,13.30
2022-10-14T02:25:00.950Z,13.30
2022-10-14T02:26:05.276Z,13.30
2022-10-14T02:27:19.012Z,13.30
2022-10-14T02:28:26.344Z,13.30
2022-10-14T02:29:31.374Z,13.30
2022-10-14T02:30:38.092Z,13.30
2022-10-14T02:31:42.895Z,13.20
2022-10-14T02:32:48.609Z,13.20
2022-10-14T02:33:54.153Z,13.20
2022-10-14T02:34:59.549Z,13.20
2022-10-14T02:36:03.736Z,13.20
2022-10-14T02:37:08.229Z,13.20
2022-10-14T02:38:10.416Z,13.20
2022-10-14T02:39:16.499Z,13.20
2022-10-14T02:40:24.986Z,13.20
2022-10-14T02:41:33.927Z,13.20
2022-10-14T02:42:35.991Z,13.30
2022-10-14T02:43:39.409Z,13.20
2022-10-14T02:44:53.706Z,13.20
2022-10-14T02:45:58.466Z,13.20
2022-10-14T02:47:01.571Z,13.30
2022-10-14T02:48:05.728Z,13.20
2022-10-14T02:49:08.900Z,13.20
2022-10-14T02:50:11.780Z,13.20
2022-10-14T02:51:14.691Z,13.20
2022-10-14T02:52:16.710Z,13.20
2022-10-14T02:53:19.676Z,13.20
2022-10-14T02:54:21.632Z,13.30
2022-10-14T02:55:24.597Z,13.30
2022-10-14T02:56:26.531Z,13.30
2022-10-14T02:57:29.484Z,13.20
2022-10-14T02:58:31.809Z,13.20
2022-10-14T02:59:34.689Z,13.30
2022-10-14T03:00:36.631Z,13.30
2022-10-14T03:01:39.681Z,13.30
2022-10-14T03:02:41.684Z,13.20
2022-10-14T03:03:45.953Z,13.20
2022-10-14T03:04:47.905Z,13.20
2022-10-14T03:05:51.026Z,13.30
2022-10-14T03:06:53.882Z,13.30
2022-10-14T03:07:57.249Z,13.30
2022-10-14T03:08:59.145Z,13.30
2022-10-14T03:10:02.763Z,13.30
2022-10-14T03:11:04.948Z,13.40
2022-10-14T03:12:08.278Z,13.30
2022-10-14T03:13:10.232Z,13.30
2022-10-14T03:14:13.201Z,13.30
2022-10-14T03:15:15.245Z,13.30
2022-10-14T03:16:18.154Z,13.30
2022-10-14T03:17:20.108Z,13.30
2022-10-14T03:18:23.131Z,13.30
2022-10-14T03:19:26.484Z,13.20
2022-10-14T03:20:29.450Z,13.30
2022-10-14T03:21:31.908Z,13.30
2022-10-14T03:22:34.886Z,13.30
2022-10-14T03:23:37.017Z,13.30
2022-10-14T03:24:39.946Z,13.40
2022-10-14T03:25:44.459Z,13.30
2022-10-14T03:26:47.378Z,13.30
2022-10-14T03:27:49.299Z,13.30
2022-10-14T03:28:52.313Z,13.30
2022-10-14T03:29:54.337Z,13.30
2022-10-14T03:30:57.265Z,13.30
2022-10-14T03:31:59.199Z,13.30
2022-10-14T03:33:02.125Z,13.30
2022-10-14T03:34:04.132Z,13.30
2022-10-14T03:35:10.281Z,13.30
2022-10-14T03:36:13.686Z,13.20
2022-10-14T03:37:15.959Z,13.20
2022-10-14T03:38:18.854Z,13.20
2022-10-14T03:39:20.782Z,13.20
2022-10-14T03:40:24.002Z,13.20
2022-10-14T03:41:26.181Z,13.20
2022-10-14T03:42:29.101Z,13.30
2022-10-14T03:43:31.352Z,13.30
2022-10-14T03:44:34.339Z,13.30
2022-10-14T03:45:36.277Z,13.30
2022-10-14T03:46:39.406Z,13.30
2022-10-14T03:47:41.346Z,13.30
2022-10-14T03:48:44.261Z,13.30
2022-10-14T03:49:46.185Z,13.30
2022-10-14T03:50:50.534Z,13.30
2022-10-14T03:51:52.498Z,13.30
2022-10-14T03:52:55.870Z,13.30
2022-10-14T03:53:57.877Z,13.30
2022-10-14T03:55:00.934Z,13.30
2022-10-14T03:56:02.901Z,13.30
2022-10-14T03:57:05.952Z,13.30
2022-10-14T03:58:08.946Z,13.30
2022-10-14T03:59:11.942Z,13.30
2022-10-14T04:00:14.689Z,13.30
2022-10-14T04:01:17.586Z,13.30
2022-10-14T04:02:19.989Z,13.30
2022-10-14T04:03:23.161Z,13.30
2022-10-14T04:04:25.209Z,13.30
2022-10-14T04:05:32.426Z,13.30
2022-10-14T04:06:36.563Z,13.30
2022-10-14T04:07:39.490Z,13.30
2022-10-14T04:08:41.521Z,13.30
2022-10-14T04:09:44.543Z,13.30
2022-10-14T04:10:46.446Z,13.30
2022-10-14T04:11:49.362Z,13.30
2022-10-14T04:12:51.531Z,13.30
2022-10-14T04:13:58.059Z,13.30
2022-10-14T04:15:00.005Z,13.20
2022-10-14T04:16:04.862Z,13.30
2022-10-14T04:17:06.795Z,13.20
2022-10-14T04:18:09.678Z,13.20
2022-10-14T04:19:11.611Z,13.30
2022-10-14T04:20:14.550Z,13.30
2022-10-14T04:21:16.530Z,13.30
2022-10-14T04:22:23.028Z,13.30
2022-10-14T04:23:25.310Z,13.20
2022-10-14T04:24:28.238Z,13.20
2022-10-14T04:25:30.491Z,13.20
2022-10-14T04:26:33.406Z,13.20
2022-10-14T04:27:35.473Z,13.20
2022-10-14T04:28:42.448Z,13.30
2022-10-14T04:29:44.691Z,13.30
2022-10-14T04:30:47.806Z,13.30
2022-10-14T04:31:49.911Z,13.20
2022-10-14T04:32:52.930Z,13.20
2022-10-14T04:33:54.868Z,13.20
2022-10-14T04:34:57.793Z,13.20
2022-10-14T04:36:00.550Z,13.30
2022-10-14T04:37:03.444Z,13.30
2022-10-14T04:38:06.781Z,13.30
2022-10-14T04:39:10.907Z,13.30
2022-10-14T04:40:12.873Z,13.30
2022-10-14T04:41:15.789Z,13.20
2022-10-14T04:42:17.775Z,13.30
2022-10-14T04:43:20.723Z,13.30
2022-10-14T04:44:22.670Z,13.30
2022-10-14T04:45:26.478Z,13.30
2022-10-14T04:46:28.404Z,13.30
2022-10-14T04:47:31.309Z,13.30
2022-10-14T04:48:33.233Z,13.30
2022-10-14T04:49:36.153Z,13.30
2022-10-14T04:50:38.075Z,13.30
2022-10-14T04:51:40.989Z,13.30
2022-10-14T04:52:42.902Z,13.30
2022-10-14T04:53:47.163Z,13.30
2022-10-14T04:54:49.074Z,13.30
2022-10-14T04:55:51.957Z,13.40
2022-10-14T04:56:53.884Z,13.30
2022-10-14T04:57:56.794Z,13.30
2022-10-14T04:58:58.704Z,13.30
2022-10-14T05:00:01.805Z,13.40
2022-10-14T05:01:03.726Z,13.30
2022-10-14T05:02:06.666Z,13.40
2022-10-14T05:03:08.881Z,13.30
2022-10-14T05:04:11.799Z,13.40
2022-10-14T05:05:33.574Z,13.40
2022-10-14T05:06:37.373Z,13.40
2022-10-14T05:07:40.325Z,13.40
2022-10-14T05:08:42.329Z,13.30
2022-10-14T05:09:49.757Z,13.30
2022-10-14T05:10:54.206Z,13.30
2022-10-14T05:11:56.145Z,13.30
2022-10-14T05:12:59.053Z,13.30
2022-10-14T05:14:01.181Z,13.30
2022-10-14T05:15:05.258Z,13.30
2022-10-14T05:16:08.833Z,13.40
2022-10-14T05:17:11.749Z,13.40
2022-10-14T05:18:13.861Z,13.40
2022-10-14T05:19:16.848Z,13.40
2022-10-14T05:20:18.993Z,13.40
2022-10-14T05:21:21.991Z,13.40
2022-10-14T05:22:25.417Z,13.40
2022-10-14T05:23:28.677Z,13.50
2022-10-14T05:24:31.644Z,13.40
2022-10-14T05:25:34.954Z,14.60
2022-10-14T05:26:37.917Z,13.40
2022-10-14T05:27:40.127Z,13.40
2022-10-14T05:28:43.113Z,13.40
2022-10-14T05:29:45.074Z,13.40
2022-10-14T05:30:48.025Z,13.40
2022-10-14T05:31:50.014Z,13.40
2022-10-14T05:32:52.925Z,13.40
2022-10-14T05:33:54.837Z,13.40
2022-10-14T05:34:57.990Z,13.40
2022-10-14T05:36:00.146Z,13.40
2022-10-14T05:37:03.266Z,13.40
2022-10-14T05:38:05.252Z,13.40
2022-10-14T05:39:09.333Z,13.40
2022-10-14T05:40:11.633Z,13.40
2022-10-14T05:41:16.699Z,13.40
2022-10-14T05:42:18.877Z,13.40
2022-10-14T05:43:27.979Z,13.40
2022-10-14T05:44:37.590Z,13.30
2022-10-14T05:45:40.421Z,13.30
2022-10-14T05:46:43.581Z,13.30
2022-10-14T05:47:46.086Z,13.30
2022-10-14T05:48:48.981Z,13.30
2022-10-14T05:49:50.910Z,13.30
2022-10-14T05:50:53.827Z,13.40
2022-10-14T05:51:55.733Z,13.40
2022-10-14T05:52:58.713Z,13.40
2022-10-14T05:54:00.685Z,13.40
2022-10-14T05:55:04.005Z,13.40
2022-10-14T05:56:08.400Z,13.40
2022-10-14T05:57:12.684Z,13.40
2022-10-14T05:58:14.798Z,13.40
2022-10-14T05:59:29.585Z,13.40
2022-10-14T06:00:33.676Z,13.40
2022-10-14T06:01:38.110Z,13.40
2022-10-14T06:02:40.242Z,13.50
2022-10-14T06:03:43.228Z,13.50
2022-10-14T06:04:45.577Z,13.50
2022-10-14T06:05:48.488Z,13.50
2022-10-14T06:06:50.406Z,13.50
2022-10-14T06:07:53.357Z,13.50
2022-10-14T06:08:55.557Z,13.50
2022-10-14T06:09:58.534Z,13.50
2022-10-14T06:11:04.179Z,13.50
2022-10-14T06:12:07.492Z,13.50
2022-10-14T06:13:10.778Z,13.50
2022-10-14T06:14:14.077Z,13.50
2022-10-14T06:15:16.100Z,13.50
2022-10-14T06:16:19.102Z,13.50
2022-10-14T06:17:21.059Z,13.50
2022-10-14T06:18:23.999Z,13.50
2022-10-14T06:19:25.984Z,13.50
2022-10-14T06:20:29.463Z,13.50
2022-10-14T06:21:32.597Z,13.50
2022-10-14T06:22:34.572Z,13.50
2022-10-14T06:23:37.507Z,13.50
2022-10-14T06:24:39.528Z,13.50
2022-10-14T06:25:42.552Z,13.50
2022-10-14T06:26:44.464Z,13.60
2022-10-14T06:27:47.543Z,13.60
2022-10-14T06:28:51.892Z,13.60
2022-10-14T06:29:53.811Z,13.60
2022-10-14T06:30:57.022Z,13.60
2022-10-14T06:31:58.933Z,13.60
2022-10-14T06:33:02.061Z,13.60
2022-10-14T06:34:05.207Z,13.60
2022-10-14T06:35:11.886Z,13.60
2022-10-14T06:36:13.816Z,13.60
2022-10-14T06:37:16.741Z,13.60
2022-10-14T06:38:18.952Z,13.60
2022-10-14T06:39:21.898Z,13.50
2022-10-14T06:40:24.346Z,13.50
2022-10-14T06:41:27.335Z,13.50
2022-10-14T06:42:29.411Z,13.60
2022-10-14T06:43:32.365Z,13.60
2022-10-14T06:44:36.720Z,13.70
2022-10-14T06:45:39.617Z,13.70
2022-10-14T06:46:41.637Z,13.70
2022-10-14T06:47:44.580Z,13.70
2022-10-14T06:48:50.173Z,13.70
2022-10-14T06:49:53.449Z,13.70
2022-10-14T06:50:56.404Z,13.70
2022-10-14T06:51:58.319Z,13.70
2022-10-14T06:53:01.263Z,13.70
2022-10-14T06:54:03.387Z,13.70
2022-10-14T06:55:07.418Z,13.70
2022-10-14T06:56:11.846Z,13.80
2022-10-14T06:57:14.778Z,13.70
2022-10-14T06:58:16.757Z,13.70
2022-10-14T06:59:19.673Z,13.70
2022-10-14T07:00:23.037Z,13.70
2022-10-14T07:01:25.997Z,13.80
2022-10-14T07:02:28.121Z,13.80
2022-10-14T07:03:31.145Z,13.80
2022-10-14T07:04:34.127Z,13.80
2022-10-14T07:05:36.174Z,13.80
2022-10-14T07:06:39.506Z,13.80
2022-10-14T07:07:41.540Z,13.70
2022-10-14T07:08:44.497Z,13.80
2022-10-14T07:09:46.497Z,13.80
2022-10-14T07:10:49.833Z,13.80
2022-10-14T07:11:51.727Z,13.80
2022-10-14T07:12:55.636Z,13.90
2022-10-14T07:13:57.722Z,13.90
2022-10-14T07:15:00.831Z,13.90
2022-10-14T07:16:04.810Z,13.80
2022-10-14T07:17:08.655Z,13.90
2022-10-14T07:18:10.628Z,13.80
2022-10-14T07:19:13.885Z,13.80
2022-10-14T07:20:16.053Z,13.80
2022-10-14T07:21:19.049Z,13.90
2022-10-14T07:22:21.262Z,13.90
2022-10-14T07:23:24.408Z,13.90
2022-10-14T07:24:26.570Z,13.90
2022-10-14T07:25:29.529Z,13.90
2022-10-14T07:26:32.629Z,13.90
2022-10-14T07:27:34.697Z,13.90
2022-10-14T07:28:37.738Z,13.90
2022-10-14T07:29:39.692Z,13.90
2022-10-14T07:30:42.665Z,13.90
2022-10-14T07:31:45.971Z,13.90
2022-10-14T07:32:48.933Z,13.90
2022-10-14T07:33:50.872Z,14.00
2022-10-14T07:34:53.790Z,13.90
2022-10-14T07:35:55.845Z,14.00
2022-10-14T07:36:58.773Z,14.00
2022-10-14T07:38:00.715Z,14.00
2022-10-14T07:39:04.406Z,14.00
2022-10-14T07:40:07.393Z,14.00
2022-10-14T07:41:18.171Z,14.00
2022-10-14T07:43:28.601Z,14.00
2022-10-14T07:44:30.547Z,14.00
2022-10-14T07:45:35.879Z,14.00
2022-10-14T07:46:40.893Z,14.00
2022-10-14T07:47:45.850Z,14.00
2022-10-14T07:48:58.279Z,14.00
2022-10-14T07:50:01.869Z,14.00
2022-10-14T07:51:03.969Z,14.00
2022-10-14T07:52:07.134Z,14.00
2022-10-14T07:53:09.073Z,14.10
2022-10-14T07:54:14.960Z,14.10
2022-10-14T07:55:17.937Z,14.00
2022-10-14T07:56:20.003Z,14.00
2022-10-14T07:57:23.813Z,14.10
2022-10-14T07:58:29.525Z,14.10
2022-10-14T07:59:32.425Z,14.10
2022-10-14T08:00:34.365Z,14.10
2022-10-14T08:01:37.458Z,14.20
2022-10-14T08:02:39.604Z,14.20
2022-10-14T08:03:44.663Z,14.20
2022-10-14T08:04:47.411Z,14.20
2022-10-14T08:05:51.109Z,14.20
2022-10-14T08:06:53.474Z,14.20
2022-10-14T08:07:56.387Z,14.20
2022-10-14T08:08:59.334Z,14.20
2022-10-14T08:10:01.676Z,14.30
2022-10-14T08:11:07.538Z,14.30
2022-10-14T08:12:10.454Z,14.30
2022-10-14T08:13:12.405Z,14.30
2022-10-14T08:14:16.155Z,14.30
2022-10-14T08:15:18.177Z,14.30
2022-10-14T08:16:23.216Z,14.30
2022-10-14T08:17:25.610Z,14.30
2022-10-14T08:18:28.950Z,14.30
2022-10-14T08:19:33.246Z,14.30
2022-10-14T08:20:35.473Z,14.30
2022-10-14T08:21:38.804Z,14.30
2022-10-14T08:22:40.728Z,14.30
2022-10-14T08:23:43.925Z,14.30
2022-10-14T08:24:46.904Z,14.30
2022-10-14T08:25:50.820Z,14.30
2022-10-14T08:26:55.692Z,14.30
2022-10-14T08:27:58.681Z,14.30
2022-10-14T08:29:03.309Z,14.30
2022-10-14T08:30:10.183Z,14.30
2022-10-14T08:31:14.616Z,14.30
2022-10-14T08:32:17.589Z,14.40
2022-10-14T08:33:19.670Z,14.40
2022-10-14T08:34:24.366Z,14.40
2022-10-14T08:35:27.806Z,14.40
2022-10-14T08:36:30.822Z,14.40
2022-10-14T08:37:32.993Z,14.40
2022-10-14T08:38:36.855Z,14.50
2022-10-14T08:39:38.781Z,14.50
2022-10-14T08:40:57.955Z,14.40
2022-10-14T08:42:17.348Z,14.40
2022-10-14T08:43:28.672Z,14.40
2022-10-14T08:44:42.250Z,14.40
2022-10-14T08:45:48.765Z,14.40
2022-10-14T08:46:54.601Z,14.40
2022-10-14T08:47:58.657Z,14.50
2022-10-14T08:49:08.745Z,14.50
2022-10-14T08:50:23.488Z,14.50
2022-10-14T08:51:30.499Z,14.50
2022-10-14T08:52:39.024Z,14.50
2022-10-14T08:53:45.871Z,14.50
2022-10-14T08:54:55.425Z,14.50
2022-10-14T08:56:00.407Z,14.50
2022-10-14T08:57:05.109Z,14.50
2022-10-14T08:58:15.721Z,14.50
2022-10-14T08:59:20.007Z,14.50
2022-10-14T09:00:23.752Z,14.50
2022-10-14T09:01:29.599Z,14.50
2022-10-14T09:02:39.053Z,14.60
2022-10-14T09:03:43.843Z,14.60
2022-10-14T09:04:45.827Z,14.60
2022-10-14T09:05:56.208Z,14.50
2022-10-14T09:07:01.070Z,14.60
2022-10-14T09:08:03.054Z,14.60
2022-10-14T09:09:10.734Z,14.60
2022-10-14T09:10:18.604Z,14.70
2022-10-14T09:11:24.142Z,14.60
2022-10-14T09:12:28.335Z,14.70
2022-10-14T09:13:36.392Z,14.70
2022-10-14T09:14:43.134Z,14.70
2022-10-14T09:15:49.242Z,14.70
2022-10-14T09:16:56.926Z,14.70
2022-10-14T09:18:10.701Z,14.80
2022-10-14T09:19:18.736Z,14.80
2022-10-14T09:20:23.562Z,14.80
2022-10-14T09:23:02.556Z,14.80
2022-10-14T09:24:12.330Z,14.80
2022-10-14T09:25:17.057Z,14.80
2022-10-14T09:26:20.223Z,14.80
2022-10-14T09:27:24.620Z,14.80
2022-10-14T09:28:36.473Z,14.80
2022-10-14T09:29:46.030Z,14.90
2022-10-14T09:30:48.129Z,14.80
2022-10-14T09:31:51.371Z,14.80
2022-10-14T09:32:54.602Z,14.80
2022-10-14T09:33:57.522Z,14.80
2022-10-14T09:35:00.247Z,14.90
2022-10-14T09:36:03.224Z,14.80
2022-10-14T09:37:23.110Z,14.80
2022-10-14T09:38:27.870Z,14.90
2022-10-14T09:39:30.934Z,14.80
2022-10-14T09:40:36.693Z,14.80
2022-10-14T09:41:40.321Z,14.80
2022-10-14T09:42:48.957Z,14.90
2022-10-14T09:44:18.669Z,14.80
2022-10-14T09:45:23.638Z,14.90
2022-10-14T09:46:25.583Z,14.90
2022-10-14T09:47:30.276Z,14.90
2022-10-14T09:48:38.655Z,14.90
2022-10-14T09:49:43.931Z,15.00
2022-10-14T09:50:52.660Z,14.90
2022-10-14T09:51:56.801Z,15.00
2022-10-14T09:53:03.587Z,15.00
2022-10-14T09:55:21.071Z,15.10
2022-10-14T09:56:31.063Z,15.00
2022-10-14T09:57:33.224Z,15.20
2022-10-14T09:58:43.083Z,15.20
2022-10-14T09:59:51.518Z,15.20
2022-10-14T10:00:58.402Z,15.20
2022-10-14T10:02:04.002Z,15.20
2022-10-14T10:03:08.323Z,15.20
2022-10-14T10:04:27.286Z,15.20
2022-10-14T10:05:31.171Z,15.20
2022-10-14T10:06:51.445Z,15.20
2022-10-14T10:08:05.891Z,15.30
2022-10-14T10:09:20.086Z,15.20
2022-10-14T10:10:22.578Z,15.30
2022-10-14T10:11:30.195Z,15.30
2022-10-14T10:12:34.846Z,15.30
2022-10-14T10:13:41.621Z,15.20
2022-10-14T10:14:56.568Z,15.30
2022-10-14T10:16:01.061Z,15.30
2022-10-14T10:17:17.736Z,15.30
2022-10-14T10:18:19.824Z,15.30
2022-10-14T10:19:28.929Z,15.30
2022-10-14T10:20:36.049Z,15.30
2022-10-14T10:21:38.025Z,15.30
2022-10-14T10:22:41.754Z,15.30
2022-10-14T10:23:54.061Z,15.30
2022-10-14T10:25:26.639Z,15.30
2022-10-14T10:26:32.925Z,15.30
2022-10-14T10:27:37.248Z,15.40
2022-10-14T10:28:46.301Z,15.40
2022-10-14T10:29:48.272Z,15.40
2022-10-14T10:31:06.934Z,15.40
2022-10-14T10:32:17.010Z,15.40
2022-10-14T10:33:24.569Z,15.40
2022-10-14T10:34:51.926Z,15.40
2022-10-14T10:36:13.316Z,15.50
2022-10-14T10:37:29.138Z,15.50
2022-10-14T10:38:35.269Z,15.50
2022-10-14T10:39:47.360Z,15.50
2022-10-14T10:41:03.309Z,15.50
2022-10-14T10:42:12.840Z,15.50
2022-10-14T10:43:43.600Z,15.50
2022-10-14T10:44:58.072Z,15.50
2022-10-14T10:46:25.398Z,15.50
2022-10-14T10:47:41.231Z,15.60
2022-10-14T10:48:47.679Z,15.60
2022-10-14T10:50:15.183Z,15.60
2022-10-14T10:51:27.625Z,15.60
2022-10-14T10:52:43.148Z,15.60
2022-10-14T10:54:02.783Z,15.60
2022-10-14T10:55:13.347Z,15.60
2022-10-14T10:56:33.578Z,15.60
2022-10-14T10:57:49.951Z,15.60
2022-10-14T10:59:07.523Z,15.50
2022-10-14T11:00:16.421Z,15.50
2022-10-14T11:01:36.547Z,15.50
2022-10-14T11:03:01.616Z,15.50
2022-10-14T11:04:17.386Z,15.60
2022-10-14T11:05:31.055Z,15.60
2022-10-14T11:07:00.008Z,15.60
2022-10-14T11:08:30.066Z,15.50
2022-10-14T11:09:57.945Z,15.60
2022-10-14T11:11:30.524Z,15.60
2022-10-14T11:12:40.439Z,15.60
2022-10-14T11:13:51.826Z,15.60
2022-10-14T11:15:12.052Z,15.60
2022-10-14T11:16:19.238Z,15.60
2022-10-14T11:17:29.754Z,15.60
2022-10-14T11:18:45.493Z,15.70
2022-10-14T11:19:55.113Z,15.70
2022-10-14T11:21:12.133Z,15.60
2022-10-14T11:22:28.709Z,15.60
2022-10-14T11:23:45.456Z,15.60
2022-10-14T11:24:58.470Z,15.70
2022-10-14T11:26:06.134Z,15.70
2022-10-14T11:27:15.106Z,15.70
2022-10-14T11:28:26.348Z,15.60
2022-10-14T11:29:51.626Z,15.70
2022-10-14T11:31:01.226Z,15.60
2022-10-14T11:32:11.714Z,15.60
2022-10-14T11:33:31.611Z,15.60
2022-10-14T11:34:44.237Z,15.60
2022-10-14T11:35:53.789Z,15.60
2022-10-14T11:37:08.025Z,15.60
2022-10-14T11:38:28.320Z,15.60
2022-10-14T11:39:39.310Z,15.60
2022-10-14T11:40:50.689Z,15.60
2022-10-14T11:42:04.788Z,15.60
2022-10-14T11:43:22.277Z,15.60
2022-10-14T11:45:55.706Z,15.60
2022-10-14T11:47:04.491Z,15.60
2022-10-14T11:48:20.944Z,15.60
2022-10-14T11:49:28.085Z,15.60
2022-10-14T11:50:36.342Z,15.70
2022-10-14T11:51:42.212Z,15.70
2022-10-14T11:52:54.898Z,15.70
2022-10-14T11:54:03.479Z,15.70
2022-10-14T11:55:14.484Z,15.70
2022-10-14T11:56:29.341Z,15.70
2022-10-14T11:57:36.846Z,15.70
2022-10-14T11:58:40.121Z,15.70
2022-10-14T12:00:38.093Z,15.80
2022-10-14T12:01:45.156Z,15.70
2022-10-14T12:02:53.405Z,15.80
2022-10-14T12:04:01.030Z,15.80
2022-10-14T12:05:10.103Z,15.80
2022-10-14T12:06:18.197Z,15.80
2022-10-14T12:07:27.648Z,15.80
2022-10-14T12:08:35.627Z,15.80
2022-10-14T12:09:43.479Z,15.80
2022-10-14T12:10:50.854Z,15.80
2022-10-14T12:11:57.309Z,15.80
2022-10-14T12:13:00.330Z,15.80
2022-10-14T12:14:13.608Z,15.80
2022-10-14T12:15:21.268Z,15.80
2022-10-14T12:16:25.382Z,15.80
2022-10-14T12:17:35.118Z,15.80
2022-10-14T12:18:38.420Z,15.80
2022-10-14T12:19:41.447Z,15.80
2022-10-14T12:20:48.735Z,15.80
2022-10-14T12:21:55.241Z,15.80
2022-10-14T12:22:58.317Z,15.80
2022-10-14T12:24:06.797Z,15.80
2022-10-14T12:25:13.063Z,15.70
2022-10-14T12:26:28.678Z,15.70
2022-10-14T12:27:32.370Z,15.70
2022-10-14T12:28:37.588Z,15.70
2022-10-14T12:29:43.857Z,15.70
2022-10-14T12:30:47.330Z,15.70
2022-10-14T12:31:52.798Z,15.70
2022-10-14T12:33:04.626Z,15.70
2022-10-14T12:34:26.029Z,15.70
2022-10-14T12:35:49.376Z,15.70
2022-10-14T12:36:51.352Z,15.70
2022-10-14T12:39:22.013Z,15.70
2022-10-14T12:40:28.514Z,15.70
2022-10-14T12:41:39.162Z,15.70
2022-10-14T12:43:05.996Z,15.70
2022-10-14T12:44:15.103Z,15.70
2022-10-14T12:45:20.692Z,15.70
2022-10-14T12:46:23.943Z,15.70
2022-10-14T12:47:30.868Z,15.70
2022-10-14T12:48:36.718Z,15.70
2022-10-14T12:49:38.807Z,15.70
2022-10-14T12:50:43.425Z,15.70
2022-10-14T12:51:55.116Z,15.70
2022-10-14T12:53:00.760Z,15.70
2022-10-14T12:54:15.471Z,15.70
2022-10-14T12:55:20.303Z,15.80
2022-10-14T12:56:35.037Z,15.80
2022-10-14T12:57:40.198Z,15.80
2022-10-14T12:59:01.141Z,15.80
2022-10-14T13:00:08.960Z,15.80
2022-10-14T13:01:18.725Z,15.80
2022-10-14T13:02:32.378Z,15.80
2022-10-14T13:03:44.058Z,15.80
2022-10-14T13:04:49.810Z,15.80
2022-10-14T13:05:52.358Z,15.80
2022-10-14T13:07:28.432Z,15.80
2022-10-14T13:08:38.335Z,15.80
2022-10-14T13:09:41.661Z,15.80
2022-10-14T13:11:09.010Z,15.80
2022-10-14T13:12:33.927Z,15.80
2022-10-14T13:14:01.125Z,15.80
2022-10-14T13:15:05.165Z,15.80
2022-10-14T13:16:08.536Z,15.80
2022-10-14T13:17:28.985Z,15.80
2022-10-14T13:18:54.753Z,15.80
2022-10-14T13:19:56.768Z,15.80
2022-10-14T13:20:59.703Z,15.80
2022-10-14T13:22:03.455Z,15.80
2022-10-14T13:23:26.498Z,15.80
2022-10-14T13:24:31.889Z,15.80
2022-10-14T13:25:34.890Z,15.80
2022-10-14T13:26:43.950Z,15.80
2022-10-14T13:28:04.620Z,15.80
2022-10-14T13:29:23.861Z,15.80
2022-10-14T13:30:35.526Z,15.80
2022-10-14T13:31:45.433Z,15.80
2022-10-14T13:32:53.712Z,15.80
2022-10-14T13:34:12.713Z,15.80
2022-10-14T13:35:32.404Z,15.80
2022-10-14T13:36:42.617Z,15.80
2022-10-14T13:37:54.173Z,15.80
2022-10-14T13:38:59.613Z,15.80
2022-10-14T13:40:18.609Z,15.80
2022-10-14T13:41:29.858Z,15.80
2022-10-14T13:42:37.734Z,15.70
2022-10-14T13:43:42.329Z,15.80
2022-10-14T13:45:58.842Z,15.70
2022-10-14T13:47:02.461Z,15.70
2022-10-14T13:48:05.458Z,15.70
2022-10-14T13:50:28.165Z,15.80
2022-10-14T13:51:43.861Z,15.70
2022-10-14T13:52:52.658Z,15.80
2022-10-14T13:53:57.481Z,15.70
2022-10-14T13:55:14.051Z,15.70
2022-10-14T13:56:23.126Z,15.70
2022-10-14T13:57:53.614Z,15.70
2022-10-14T13:58:47.938Z,15.70
2022-10-14T14:01:14.804Z,15.70
2022-10-14T14:02:21.128Z,15.70
2022-10-14T14:03:26.890Z,15.70
2022-10-14T14:04:34.836Z,15.70
2022-10-14T14:05:36.975Z,15.70
2022-10-14T14:07:02.986Z,15.70
2022-10-14T14:09:40.675Z,15.70
2022-10-14T14:11:14.463Z,15.70
2022-10-14T14:12:14.777Z,15.70
2022-10-14T14:13:16.995Z,15.70
2022-10-14T14:14:22.505Z,15.70
2022-10-14T14:15:26.487Z,15.70
2022-10-14T14:16:32.743Z,15.70
2022-10-14T14:17:36.549Z,15.70
2022-10-14T14:18:56.341Z,15.70
2022-10-14T14:20:11.337Z,15.70
2022-10-14T14:21:14.018Z,15.80
2022-10-14T14:22:19.351Z,15.70
2022-10-14T14:23:21.261Z,15.70
2022-10-14T14:24:26.119Z,15.80
2022-10-14T14:25:43.249Z,15.80
2022-10-14T14:26:55.736Z,15.70
2022-10-14T14:28:01.274Z,15.70
2022-10-14T14:29:06.566Z,15.70
2022-10-14T14:30:21.876Z,15.70